sensor_id;sensor_type;location;lat;lon;timestamp;pressure;altitude;pressure_sealevel;temperature;humidity
71917;BME280;59793;46.506;6.674;2023-07-20T00:02:05;97077.63;;;22.09;52.32
71917;BME280;59793;46.506;6.674;2023-07-20T00:04:30;97043.97;;;22.04;52.25
71917;BME280;59793;46.506;6.674;2023-07-20T00:06:56;97029.03;;;22.03;51.66
71917;BME280;59793;46.506;6.674;2023-07-20T00:09:21;97051.41;;;21.96;52.01
71917;BME280;59793;46.506;6.674;2023-07-20T00:11:51;97061.47;;;21.92;52.42
71917;BME280;59793;46.506;6.674;2023-07-20T00:14:17;97045.53;;;21.85;52.44
71917;BME280;59793;46.506;6.674;2023-07-20T00:16:43;97043.66;;;21.82;52.27
71917;BME280;59793;46.506;6.674;2023-07-20T00:19:08;97034.72;;;21.69;52.60
71917;BME280;59793;46.506;6.674;2023-07-20T00:21:35;97037.75;;;21.71;52.44
71917;BME280;59793;46.506;6.674;2023-07-20T00:24:01;97054.09;;;21.77;52.48
71917;BME280;59793;46.506;6.674;2023-07-20T00:26:26;97012.56;;;21.48;52.46
71917;BME280;59793;46.506;6.674;2023-07-20T00:28:51;97019.44;;;21.50;52.71
71917;BME280;59793;46.506;6.674;2023-07-20T00:31:17;97024.84;;;21.46;52.93
71917;BME280;59793;46.506;6.674;2023-07-20T00:33:42;97058.03;;;21.72;52.95
71917;BME280;59793;46.506;6.674;2023-07-20T00:36:07;97049.66;;;21.70;52.66
71917;BME280;59793;46.506;6.674;2023-07-20T00:38:33;97054.31;;;21.66;52.80
71917;BME280;59793;46.506;6.674;2023-07-20T00:40:58;97052.63;;;21.56;53.03
71917;BME280;59793;46.506;6.674;2023-07-20T00:43:23;97036.56;;;21.32;53.24
71917;BME280;59793;46.506;6.674;2023-07-20T00:45:49;97031.19;;;21.36;53.53
71917;BME280;59793;46.506;6.674;2023-07-20T00:48:14;97060.75;;;21.52;53.47
71917;BME280;59793;46.506;6.674;2023-07-20T00:50:40;97035.06;;;21.31;53.48
71917;BME280;59793;46.506;6.674;2023-07-20T00:53:07;97083.69;;;21.53;53.85
71917;BME280;59793;46.506;6.674;2023-07-20T00:55:33;97083.75;;;21.50;54.27
71917;BME280;59793;46.506;6.674;2023-07-20T00:57:59;97084.72;;;21.39;54.56
71917;BME280;59793;46.506;6.674;2023-07-20T01:00:24;97078.59;;;21.39;54.52
71917;BME280;59793;46.506;6.674;2023-07-20T01:02:51;97039.84;;;21.20;54.14
71917;BME280;59793;46.506;6.674;2023-07-20T01:05:16;97069.19;;;21.51;54.05
71917;BME280;59793;46.506;6.674;2023-07-20T01:08:18;97068.91;;;21.65;53.44
71917;BME280;59793;46.506;6.674;2023-07-20T01:11:00;97073.66;;;21.77;53.38
71917;BME280;59793;46.506;6.674;2023-07-20T01:13:28;97028.97;;;21.70;53.01
71917;BME280;59793;46.506;6.674;2023-07-20T01:16:00;97050.88;;;21.85;52.60
71917;BME280;59793;46.506;6.674;2023-07-20T01:18:26;97060.50;;;22.03;52.48
71917;BME280;59793;46.506;6.674;2023-07-20T01:20:53;97031.97;;;21.92;52.52
71917;BME280;59793;46.506;6.674;2023-07-20T01:29:25;97070.78;;;22.04;53.01
71917;BME280;59793;46.506;6.674;2023-07-20T01:31:56;97073.56;;;22.01;53.04
71917;BME280;59793;46.506;6.674;2023-07-20T01:34:23;97046.50;;;21.75;53.27
71917;BME280;59793;46.506;6.674;2023-07-20T01:36:50;97047.66;;;21.74;52.92
71917;BME280;59793;46.506;6.674;2023-07-20T01:39:18;97041.66;;;21.86;52.97
71917;BME280;59793;46.506;6.674;2023-07-20T01:41:44;97009.78;;;21.72;52.41
71917;BME280;59793;46.506;6.674;2023-07-20T01:44:12;97052.91;;;21.98;52.47
71917;BME280;59793;46.506;6.674;2023-07-20T01:46:38;97037.25;;;21.96;52.48
71917;BME280;59793;46.506;6.674;2023-07-20T01:49:03;97048.19;;;22.05;52.54
71917;BME280;59793;46.506;6.674;2023-07-20T01:51:28;97036.28;;;21.86;53.33
71917;BME280;59793;46.506;6.674;2023-07-20T01:53:53;97008.06;;;21.62;52.58
71917;BME280;59793;46.506;6.674;2023-07-20T01:56:20;97013.78;;;21.64;52.68
71917;BME280;59793;46.506;6.674;2023-07-20T01:58:45;97008.84;;;21.42;52.81
71917;BME280;59793;46.506;6.674;2023-07-20T02:01:10;97011.16;;;21.40;53.24
71917;BME280;59793;46.506;6.674;2023-07-20T02:03:36;97020.59;;;21.48;52.87
71917;BME280;59793;46.506;6.674;2023-07-20T02:06:01;96994.34;;;21.40;52.97
71917;BME280;59793;46.506;6.674;2023-07-20T02:08:26;97049.59;;;21.74;52.96
71917;BME280;59793;46.506;6.674;2023-07-20T02:10:52;97039.91;;;21.60;53.42
71917;BME280;59793;46.506;6.674;2023-07-20T02:13:17;97025.69;;;21.43;53.60
71917;BME280;59793;46.506;6.674;2023-07-20T02:15:42;97007.69;;;21.20;53.47
71917;BME280;59793;46.506;6.674;2023-07-20T02:18:08;97033.97;;;21.29;54.06
71917;BME280;59793;46.506;6.674;2023-07-20T02:20:35;97017.31;;;20.97;54.64
71917;BME280;59793;46.506;6.674;2023-07-20T02:23:00;97038.78;;;20.94;55.34
71917;BME280;59793;46.506;6.674;2023-07-20T02:25:25;97055.50;;;21.01;55.01
71917;BME280;59793;46.506;6.674;2023-07-20T02:27:51;97016.16;;;20.75;55.05
71917;BME280;59793;46.506;6.674;2023-07-20T02:30:17;97038.22;;;20.83;55.31
71917;BME280;59793;46.506;6.674;2023-07-20T02:32:42;97057.53;;;20.94;55.17
71917;BME280;59793;46.506;6.674;2023-07-20T02:35:11;97036.06;;;20.74;55.38
71917;BME280;59793;46.506;6.674;2023-07-20T02:37:36;97024.47;;;20.81;54.98
71917;BME280;59793;46.506;6.674;2023-07-20T02:40:02;97057.03;;;21.03;54.57
71917;BME280;59793;46.506;6.674;2023-07-20T02:42:29;97039.53;;;20.94;54.61
71917;BME280;59793;46.506;6.674;2023-07-20T02:44:54;97029.19;;;20.96;54.80
71917;BME280;59793;46.506;6.674;2023-07-20T02:47:20;97059.66;;;21.26;54.26
71917;BME280;59793;46.506;6.674;2023-07-20T02:49:45;97022.88;;;21.07;54.05
71917;BME280;59793;46.506;6.674;2023-07-20T02:52:11;97075.44;;;21.44;53.84
71917;BME280;59793;46.506;6.674;2023-07-20T02:54:36;97071.69;;;21.41;53.92
71917;BME280;59793;46.506;6.674;2023-07-20T02:57:01;97048.44;;;21.35;53.87
71917;BME280;59793;46.506;6.674;2023-07-20T02:59:27;97077.38;;;21.63;53.17
71917;BME280;59793;46.506;6.674;2023-07-20T03:01:52;97038.13;;;21.53;52.79
71917;BME280;59793;46.506;6.674;2023-07-20T03:04:19;97074.75;;;21.80;52.69
71917;BME280;59793;46.506;6.674;2023-07-20T03:06:44;97035.31;;;21.60;52.12
71917;BME280;59793;46.506;6.674;2023-07-20T03:09:09;97082.84;;;21.96;52.23
71917;BME280;59793;46.506;6.674;2023-07-20T03:11:35;97054.00;;;21.84;52.31
71917;BME280;59793;46.506;6.674;2023-07-20T03:14:00;97045.38;;;21.72;53.12
71917;BME280;59793;46.506;6.674;2023-07-20T03:16:25;97044.41;;;21.83;53.78
71917;BME280;59793;46.506;6.674;2023-07-20T03:18:51;97025.69;;;21.63;54.28
71917;BME280;59793;46.506;6.674;2023-07-20T03:21:17;97060.22;;;21.97;54.20
71917;BME280;59793;46.506;6.674;2023-07-20T03:23:42;97033.09;;;21.75;54.58
71917;BME280;59793;46.506;6.674;2023-07-20T03:26:08;97037.19;;;21.80;53.83
71917;BME280;59793;46.506;6.674;2023-07-20T03:28:34;97075.38;;;21.87;53.18
71917;BME280;59793;46.506;6.674;2023-07-20T03:31:00;97079.63;;;21.85;53.28
71917;BME280;59793;46.506;6.674;2023-07-20T03:33:27;97077.38;;;21.63;54.44
71917;BME280;59793;46.506;6.674;2023-07-20T03:35:53;97074.63;;;21.47;54.78
71917;BME280;59793;46.506;6.674;2023-07-20T03:38:19;97053.91;;;21.28;55.03
71917;BME280;59793;46.506;6.674;2023-07-20T03:43:17;97058.88;;;21.06;55.73
71917;BME280;59793;46.506;6.674;2023-07-20T03:45:42;97061.28;;;21.20;55.13
71917;BME280;59793;46.506;6.674;2023-07-20T03:48:08;97024.47;;;21.04;54.75
71917;BME280;59793;46.506;6.674;2023-07-20T03:50:33;97056.31;;;20.98;55.56
71917;BME280;59793;46.506;6.674;2023-07-20T03:52:58;97063.25;;;20.96;55.94
71917;BME280;59793;46.506;6.674;2023-07-20T03:55:24;97001.16;;;20.58;55.50
71917;BME280;59793;46.506;6.674;2023-07-20T03:57:49;97057.97;;;20.92;55.96
71917;BME280;59793;46.506;6.674;2023-07-20T04:00:16;97063.78;;;20.87;56.07
71917;BME280;59793;46.506;6.674;2023-07-20T04:02:42;97063.88;;;21.04;55.36
71917;BME280;59793;46.506;6.674;2023-07-20T04:05:07;97041.34;;;20.77;56.29
71917;BME280;59793;46.506;6.674;2023-07-20T04:07:33;97029.31;;;20.66;55.88
71917;BME280;59793;46.506;6.674;2023-07-20T04:09:58;97042.06;;;20.82;55.97
71917;BME280;59793;46.506;6.674;2023-07-20T04:12:23;97054.91;;;20.90;55.55
71917;BME280;59793;46.506;6.674;2023-07-20T04:14:49;97035.59;;;20.79;55.84
71917;BME280;59793;46.506;6.674;2023-07-20T04:17:14;97041.06;;;20.72;55.96
71917;BME280;59793;46.506;6.674;2023-07-20T04:19:39;97066.78;;;20.66;56.48
71917;BME280;59793;46.506;6.674;2023-07-20T04:22:04;97084.38;;;20.67;56.53
71917;BME280;59793;46.506;6.674;2023-07-20T04:24:30;97064.81;;;20.43;57.04
71917;BME280;59793;46.506;6.674;2023-07-20T04:26:55;97066.97;;;20.24;57.60
71917;BME280;59793;46.506;6.674;2023-07-20T04:29:20;97087.78;;;20.40;57.25
71917;BME280;59793;46.506;6.674;2023-07-20T04:31:46;97039.03;;;20.02;57.64
71917;BME280;59793;46.506;6.674;2023-07-20T04:34:11;97053.06;;;20.10;58.22
71917;BME280;59793;46.506;6.674;2023-07-20T04:36:37;97038.78;;;19.89;58.92
71917;BME280;59793;46.506;6.674;2023-07-20T04:39:03;97070.00;;;19.99;58.45
71917;BME280;59793;46.506;6.674;2023-07-20T04:41:28;97033.53;;;19.82;58.67
71917;BME280;59793;46.506;6.674;2023-07-20T04:43:53;97071.63;;;19.93;58.97
71917;BME280;59793;46.506;6.674;2023-07-20T04:46:19;97032.53;;;19.72;59.18
71917;BME280;59793;46.506;6.674;2023-07-20T04:48:46;97027.56;;;19.71;59.09
71917;BME280;59793;46.506;6.674;2023-07-20T04:51:12;97073.59;;;20.16;59.19
71917;BME280;59793;46.506;6.674;2023-07-20T04:53:38;97051.19;;;20.06;59.12
71917;BME280;59793;46.506;6.674;2023-07-20T04:56:03;97053.81;;;20.10;58.95
71917;BME280;59793;46.506;6.674;2023-07-20T04:58:28;97044.69;;;19.77;59.74
71917;BME280;59793;46.506;6.674;2023-07-20T05:00:54;97046.28;;;19.71;60.37
71917;BME280;59793;46.506;6.674;2023-07-20T05:03:19;97065.31;;;19.76;60.97
71917;BME280;59793;46.506;6.674;2023-07-20T05:05:46;97052.09;;;19.66;60.80
71917;BME280;59793;46.506;6.674;2023-07-20T05:08:12;97038.78;;;19.58;61.14
71917;BME280;59793;46.506;6.674;2023-07-20T05:10:37;97049.75;;;19.68;61.13
71917;BME280;59793;46.506;6.674;2023-07-20T05:13:03;97050.97;;;19.59;61.46
71917;BME280;59793;46.506;6.674;2023-07-20T05:15:28;97042.97;;;19.59;61.57
71917;BME280;59793;46.506;6.674;2023-07-20T05:17:53;97034.19;;;19.63;61.75
71917;BME280;59793;46.506;6.674;2023-07-20T05:20:19;97073.88;;;19.95;61.17
71917;BME280;59793;46.506;6.674;2023-07-20T05:22:45;97056.28;;;19.97;60.66
71917;BME280;59793;46.506;6.674;2023-07-20T05:25:11;97054.91;;;20.13;59.85
71917;BME280;59793;46.506;6.674;2023-07-20T05:27:37;97038.38;;;20.21;59.42
71917;BME280;59793;46.506;6.674;2023-07-20T05:30:03;97045.63;;;20.48;59.68
71917;BME280;59793;46.506;6.674;2023-07-20T05:32:29;97049.00;;;20.79;58.42
71917;BME280;59793;46.506;6.674;2023-07-20T05:34:54;97083.28;;;21.35;57.31
71917;BME280;59793;46.506;6.674;2023-07-20T05:37:20;97048.63;;;21.44;57.24
71917;BME280;59793;46.506;6.674;2023-07-20T05:39:46;97045.94;;;21.64;56.22
71917;BME280;59793;46.506;6.674;2023-07-20T05:42:11;97041.81;;;21.79;56.32
71917;BME280;59793;46.506;6.674;2023-07-20T05:44:37;97065.44;;;22.04;56.34
71917;BME280;59793;46.506;6.674;2023-07-20T05:47:02;97058.28;;;21.98;55.62
71917;BME280;59793;46.506;6.674;2023-07-20T05:49:28;97066.75;;;22.32;54.88
71917;BME280;59793;46.506;6.674;2023-07-20T05:51:54;97077.09;;;22.50;53.78
71917;BME280;59793;46.506;6.674;2023-07-20T05:54:20;97066.78;;;22.65;54.02
71917;BME280;59793;46.506;6.674;2023-07-20T05:56:46;97018.84;;;22.47;54.02
71917;BME280;59793;46.506;6.674;2023-07-20T05:59:11;97037.09;;;22.72;54.35
71917;BME280;59793;46.506;6.674;2023-07-20T06:01:37;97063.09;;;23.08;52.01
71917;BME280;59793;46.506;6.674;2023-07-20T06:04:02;97068.94;;;23.19;50.83
71917;BME280;59793;46.506;6.674;2023-07-20T06:06:28;97050.22;;;23.16;50.17
71917;BME280;59793;46.506;6.674;2023-07-20T06:08:54;97059.13;;;23.42;50.78
71917;BME280;59793;46.506;6.674;2023-07-20T06:11:20;97072.00;;;23.63;52.05
71917;BME280;59793;46.506;6.674;2023-07-20T06:13:46;97006.94;;;23.26;51.49
71917;BME280;59793;46.506;6.674;2023-07-20T06:16:11;97069.03;;;23.74;51.07
71917;BME280;59793;46.506;6.674;2023-07-20T06:18:36;97050.75;;;23.81;53.49
71917;BME280;59793;46.506;6.674;2023-07-20T06:21:02;97071.34;;;24.01;51.32
71917;BME280;59793;46.506;6.674;2023-07-20T06:23:27;97052.16;;;23.99;48.74
71917;BME280;59793;46.506;6.674;2023-07-20T06:25:53;97067.69;;;24.07;47.85
71917;BME280;59793;46.506;6.674;2023-07-20T06:28:18;97039.16;;;24.10;47.57
71917;BME280;59793;46.506;6.674;2023-07-20T06:30:43;97035.50;;;24.04;46.77
71917;BME280;59793;46.506;6.674;2023-07-20T06:33:09;97020.84;;;23.79;47.13
71917;BME280;59793;46.506;6.674;2023-07-20T06:35:34;97053.97;;;23.76;47.97
71917;BME280;59793;46.506;6.674;2023-07-20T06:38:00;97047.31;;;23.52;48.81
71917;BME280;59793;46.506;6.674;2023-07-20T06:40:26;97030.25;;;23.58;48.86
71917;BME280;59793;46.506;6.674;2023-07-20T06:42:51;97035.25;;;23.73;48.88
71917;BME280;59793;46.506;6.674;2023-07-20T06:45:16;97035.72;;;23.55;49.76
71917;BME280;59793;46.506;6.674;2023-07-20T06:47:42;97023.72;;;23.30;50.53
71917;BME280;59793;46.506;6.674;2023-07-20T06:50:08;97048.50;;;23.51;50.35
71917;BME280;59793;46.506;6.674;2023-07-20T06:52:34;97029.09;;;23.30;51.59
71917;BME280;59793;46.506;6.674;2023-07-20T06:55:00;97027.59;;;23.29;50.83
71917;BME280;59793;46.506;6.674;2023-07-20T06:57:26;97066.59;;;23.63;50.82
71917;BME280;59793;46.506;6.674;2023-07-20T06:59:51;97043.41;;;23.69;50.11
71917;BME280;59793;46.506;6.674;2023-07-20T07:02:16;97021.28;;;23.49;51.01
71917;BME280;59793;46.506;6.674;2023-07-20T07:04:42;97036.78;;;23.87;50.79
71917;BME280;59793;46.506;6.674;2023-07-20T07:07:08;97039.38;;;24.03;50.66
71917;BME280;59793;46.506;6.674;2023-07-20T07:09:34;97045.28;;;24.23;50.62
71917;BME280;59793;46.506;6.674;2023-07-20T07:11:59;97064.88;;;23.98;50.77
71917;BME280;59793;46.506;6.674;2023-07-20T07:14:25;97028.94;;;23.63;50.92
71917;BME280;59793;46.506;6.674;2023-07-20T07:16:50;97041.50;;;23.82;51.18
71917;BME280;59793;46.506;6.674;2023-07-20T07:19:16;97037.94;;;23.73;51.50
71917;BME280;59793;46.506;6.674;2023-07-20T07:21:41;97057.78;;;24.17;51.06
71917;BME280;59793;46.506;6.674;2023-07-20T07:24:06;97013.28;;;23.74;51.30
71917;BME280;59793;46.506;6.674;2023-07-20T07:26:33;97060.44;;;23.92;50.86
71917;BME280;59793;46.506;6.674;2023-07-20T07:28:58;97040.25;;;24.00;50.97
71917;BME280;59793;46.506;6.674;2023-07-20T07:31:29;97017.72;;;23.94;49.77
71917;BME280;59793;46.506;6.674;2023-07-20T07:33:55;97019.34;;;23.91;51.51
71917;BME280;59793;46.506;6.674;2023-07-20T07:36:21;96992.81;;;23.64;51.97
71917;BME280;59793;46.506;6.674;2023-07-20T07:38:46;97058.53;;;24.05;51.40
71917;BME280;59793;46.506;6.674;2023-07-20T07:41:11;97031.38;;;23.74;51.87
71917;BME280;59793;46.506;6.674;2023-07-20T07:43:37;97023.97;;;23.49;51.76
71917;BME280;59793;46.506;6.674;2023-07-20T07:46:03;97032.09;;;23.61;52.34
71917;BME280;59793;46.506;6.674;2023-07-20T07:48:29;96999.91;;;23.58;51.55
71917;BME280;59793;46.506;6.674;2023-07-20T07:50:54;96958.50;;;23.81;50.55
71917;BME280;59793;46.506;6.674;2023-07-20T07:53:22;97016.97;;;24.44;50.09
71917;BME280;59793;46.506;6.674;2023-07-20T07:55:50;97048.72;;;24.24;50.88
71917;BME280;59793;46.506;6.674;2023-07-20T07:58:16;97037.00;;;24.30;51.11
71917;BME280;59793;46.506;6.674;2023-07-20T08:00:41;96990.53;;;23.62;51.56
71917;BME280;59793;46.506;6.674;2023-07-20T08:03:06;96994.25;;;23.94;50.63
71917;BME280;59793;46.506;6.674;2023-07-20T08:05:33;97029.88;;;24.24;51.40
71917;BME280;59793;46.506;6.674;2023-07-20T08:07:58;96986.53;;;23.96;50.33
71917;BME280;59793;46.506;6.674;2023-07-20T08:10:24;97011.81;;;24.24;51.34
71917;BME280;59793;46.506;6.674;2023-07-20T08:12:49;97010.25;;;24.62;49.97
71917;BME280;59793;46.506;6.674;2023-07-20T08:15:14;97008.25;;;24.53;49.51
71917;BME280;59793;46.506;6.674;2023-07-20T08:17:41;96990.69;;;24.36;49.98
71917;BME280;59793;46.506;6.674;2023-07-20T08:20:07;97010.53;;;24.42;50.80
71917;BME280;59793;46.506;6.674;2023-07-20T08:22:36;96963.06;;;23.71;51.08
71917;BME280;59793;46.506;6.674;2023-07-20T08:25:01;97000.59;;;24.26;51.00
71917;BME280;59793;46.506;6.674;2023-07-20T08:27:26;97022.34;;;24.31;50.97
71917;BME280;59793;46.506;6.674;2023-07-20T08:29:52;97023.97;;;24.29;51.69
71917;BME280;59793;46.506;6.674;2023-07-20T08:32:17;96987.34;;;24.06;51.68
71917;BME280;59793;46.506;6.674;2023-07-20T08:34:42;96997.63;;;24.71;49.62
71917;BME280;59793;46.506;6.674;2023-07-20T08:37:08;97001.34;;;24.87;49.78
71917;BME280;59793;46.506;6.674;2023-07-20T08:39:35;97012.59;;;25.07;50.29
71917;BME280;59793;46.506;6.674;2023-07-20T08:42:01;96990.75;;;24.70;49.66
71917;BME280;59793;46.506;6.674;2023-07-20T08:44:29;96996.28;;;24.28;50.65
71917;BME280;59793;46.506;6.674;2023-07-20T08:46:57;97002.31;;;24.32;50.28
71917;BME280;59793;46.506;6.674;2023-07-20T08:49:23;96993.38;;;24.36;49.72
71917;BME280;59793;46.506;6.674;2023-07-20T08:51:49;96993.34;;;24.61;50.24
71917;BME280;59793;46.506;6.674;2023-07-20T08:54:16;96996.19;;;24.79;50.09
71917;BME280;59793;46.506;6.674;2023-07-20T08:56:42;96998.97;;;24.89;50.06
71917;BME280;59793;46.506;6.674;2023-07-20T08:59:12;96984.16;;;25.28;48.17
71917;BME280;59793;46.506;6.674;2023-07-20T09:01:39;97006.13;;;25.70;46.42
71917;BME280;59793;46.506;6.674;2023-07-20T09:04:04;97003.13;;;25.68;44.52
71917;BME280;59793;46.506;6.674;2023-07-20T09:06:29;96955.88;;;25.33;47.56
71917;BME280;59793;46.506;6.674;2023-07-20T09:08:55;97001.28;;;25.12;46.76
71917;BME280;59793;46.506;6.674;2023-07-20T09:11:20;96976.56;;;25.36;46.54
71917;BME280;59793;46.506;6.674;2023-07-20T09:13:46;96967.72;;;25.35;47.43
71917;BME280;59793;46.506;6.674;2023-07-20T09:16:13;96966.06;;;25.60;46.42
71917;BME280;59793;46.506;6.674;2023-07-20T09:18:39;96960.53;;;25.63;46.37
71917;BME280;59793;46.506;6.674;2023-07-20T09:21:05;96979.22;;;25.80;46.93
71917;BME280;59793;46.506;6.674;2023-07-20T09:23:35;96975.41;;;25.99;44.79
71917;BME280;59793;46.506;6.674;2023-07-20T09:26:13;96964.81;;;25.83;45.51
71917;BME280;59793;46.506;6.674;2023-07-20T09:28:58;96933.50;;;25.54;45.04
71917;BME280;59793;46.506;6.674;2023-07-20T09:31:23;96950.63;;;25.60;45.78
71917;BME280;59793;46.506;6.674;2023-07-20T09:33:52;96941.09;;;25.46;46.98
71917;BME280;59793;46.506;6.674;2023-07-20T09:36:17;96939.47;;;25.49;44.55
71917;BME280;59793;46.506;6.674;2023-07-20T09:38:43;96963.78;;;25.58;46.92
71917;BME280;59793;46.506;6.674;2023-07-20T09:41:13;96957.84;;;25.63;45.81
71917;BME280;59793;46.506;6.674;2023-07-20T09:43:39;96931.13;;;25.56;46.23
71917;BME280;59793;46.506;6.674;2023-07-20T09:46:05;96922.16;;;25.68;45.22
71917;BME280;59793;46.506;6.674;2023-07-20T09:48:30;96906.41;;;25.98;45.46
71917;BME280;59793;46.506;6.674;2023-07-20T09:50:56;96907.13;;;25.58;43.89
71917;BME280;59793;46.506;6.674;2023-07-20T09:53:23;96945.00;;;25.77;45.73
71917;BME280;59793;46.506;6.674;2023-07-20T09:55:49;96919.63;;;26.05;46.03
71917;BME280;59793;46.506;6.674;2023-07-20T09:58:15;96943.31;;;26.01;45.50
71917;BME280;59793;46.506;6.674;2023-07-20T10:00:42;96954.53;;;25.68;46.01
71917;BME280;59793;46.506;6.674;2023-07-20T10:03:15;96933.75;;;25.47;46.89
71917;BME280;59793;46.506;6.674;2023-07-20T10:05:43;96937.75;;;25.64;46.80
71917;BME280;59793;46.506;6.674;2023-07-20T10:08:12;96950.22;;;26.02;46.28
71917;BME280;59793;46.506;6.674;2023-07-20T10:10:41;96901.91;;;25.64;46.72
71917;BME280;59793;46.506;6.674;2023-07-20T10:13:10;96921.00;;;25.69;47.05
71917;BME280;59793;46.506;6.674;2023-07-20T10:15:45;96919.91;;;25.98;46.26
71917;BME280;59793;46.506;6.674;2023-07-20T10:18:30;96940.53;;;26.41;44.65
71917;BME280;59793;46.506;6.674;2023-07-20T10:20:59;96937.28;;;26.74;42.45
71917;BME280;59793;46.506;6.674;2023-07-20T10:23:26;96918.97;;;26.69;42.76
71917;BME280;59793;46.506;6.674;2023-07-20T10:25:54;96886.66;;;26.56;41.53
71917;BME280;59793;46.506;6.674;2023-07-20T10:28:21;96939.53;;;26.76;41.83
71917;BME280;59793;46.506;6.674;2023-07-20T10:30:48;96904.78;;;26.28;42.73
71917;BME280;59793;46.506;6.674;2023-07-20T10:33:14;96927.97;;;26.75;41.63
71917;BME280;59793;46.506;6.674;2023-07-20T10:36:02;96917.59;;;26.83;40.18
71917;BME280;59793;46.506;6.674;2023-07-20T10:41:22;96890.81;;;27.22;39.86
71917;BME280;59793;46.506;6.674;2023-07-20T10:43:50;96917.78;;;27.49;39.26
71917;BME280;59793;46.506;6.674;2023-07-20T10:49:03;96912.25;;;27.44;37.97
71917;BME280;59793;46.506;6.674;2023-07-20T10:56:56;96873.41;;;27.89;37.88
71917;BME280;59793;46.506;6.674;2023-07-20T11:01:54;96894.59;;;27.57;38.78
71917;BME280;59793;46.506;6.674;2023-07-20T11:04:38;96896.41;;;27.94;38.78
71917;BME280;59793;46.506;6.674;2023-07-20T11:07:03;96843.53;;;27.98;37.14
71917;BME280;59793;46.506;6.674;2023-07-20T11:09:33;96879.50;;;28.23;37.11
71917;BME280;59793;46.506;6.674;2023-07-20T11:12:13;96875.25;;;28.31;36.96
71917;BME280;59793;46.506;6.674;2023-07-20T11:14:42;96879.50;;;28.23;36.67
71917;BME280;59793;46.506;6.674;2023-07-20T11:17:14;96878.47;;;27.96;35.93
71917;BME280;59793;46.506;6.674;2023-07-20T11:19:40;96841.00;;;27.71;37.11
71917;BME280;59793;46.506;6.674;2023-07-20T11:22:06;96875.88;;;27.78;37.11
71917;BME280;59793;46.506;6.674;2023-07-20T11:24:33;96872.28;;;27.72;38.17
71917;BME280;59793;46.506;6.674;2023-07-20T11:26:59;96845.25;;;27.62;37.67
71917;BME280;59793;46.506;6.674;2023-07-20T11:29:25;96863.28;;;27.65;38.67
71917;BME280;59793;46.506;6.674;2023-07-20T11:31:53;96819.88;;;27.84;37.40
71917;BME280;59793;46.506;6.674;2023-07-20T11:34:20;96865.63;;;27.73;37.23
71917;BME280;59793;46.506;6.674;2023-07-20T11:36:47;96825.69;;;27.68;36.95
71917;BME280;59793;46.506;6.674;2023-07-20T11:39:15;96860.91;;;27.92;37.26
71917;BME280;59793;46.506;6.674;2023-07-20T11:41:49;96851.69;;;28.37;36.66
71917;BME280;59793;46.506;6.674;2023-07-20T11:44:16;96789.28;;;27.69;37.60
71917;BME280;59793;46.506;6.674;2023-07-20T11:46:42;96829.50;;;27.85;36.11
71917;BME280;59793;46.506;6.674;2023-07-20T11:49:09;96848.97;;;27.98;36.37
71917;BME280;59793;46.506;6.674;2023-07-20T11:51:35;96811.28;;;28.09;34.94
71917;BME280;59793;46.506;6.674;2023-07-20T11:54:02;96836.31;;;28.43;36.43
71917;BME280;59793;46.506;6.674;2023-07-20T11:56:28;96806.63;;;28.25;34.88
71917;BME280;59793;46.506;6.674;2023-07-20T11:58:58;96736.06;;;28.04;35.44
71917;BME280;59793;46.506;6.674;2023-07-20T12:01:29;96798.38;;;28.43;34.97
71917;BME280;59793;46.506;6.674;2023-07-20T12:03:56;96773.94;;;28.14;35.36
71917;BME280;59793;46.506;6.674;2023-07-20T12:06:25;96807.25;;;28.58;36.14
71917;BME280;59793;46.506;6.674;2023-07-20T12:08:54;96798.94;;;28.92;35.76
71917;BME280;59793;46.506;6.674;2023-07-20T12:11:39;96783.72;;;28.65;33.55
71917;BME280;59793;46.506;6.674;2023-07-20T12:14:08;96770.38;;;28.22;34.38
71917;BME280;59793;46.506;6.674;2023-07-20T12:16:35;96742.72;;;28.03;35.01
71917;BME280;59793;46.506;6.674;2023-07-20T12:19:04;96787.63;;;28.64;34.36
71917;BME280;59793;46.506;6.674;2023-07-20T12:21:31;96763.69;;;28.47;35.49
71917;BME280;59793;46.506;6.674;2023-07-20T12:23:58;96775.19;;;28.57;35.25
71917;BME280;59793;46.506;6.674;2023-07-20T12:26:24;96730.28;;;28.11;34.54
71917;BME280;59793;46.506;6.674;2023-07-20T12:28:50;96733.06;;;28.41;34.00
71917;BME280;59793;46.506;6.674;2023-07-20T12:31:16;96770.03;;;29.03;33.83
71917;BME280;59793;46.506;6.674;2023-07-20T12:33:41;96744.78;;;28.82;34.27
71917;BME280;59793;46.506;6.674;2023-07-20T12:36:08;96773.13;;;28.96;34.46
71917;BME280;59793;46.506;6.674;2023-07-20T12:38:34;96761.41;;;29.20;33.29
71917;BME280;59793;46.506;6.674;2023-07-20T12:41:02;96740.13;;;28.83;35.55
71917;BME280;59793;46.506;6.674;2023-07-20T12:43:28;96724.28;;;28.46;32.67
71917;BME280;59793;46.506;6.674;2023-07-20T12:45:55;96765.31;;;29.19;35.08
71917;BME280;59793;46.506;6.674;2023-07-20T12:48:20;96721.72;;;28.72;32.94
71917;BME280;59793;46.506;6.674;2023-07-20T12:50:46;96729.09;;;28.72;32.56
71917;BME280;59793;46.506;6.674;2023-07-20T12:53:11;96723.13;;;28.68;34.02
71917;BME280;59793;46.506;6.674;2023-07-20T12:55:37;96758.06;;;28.95;34.62
71917;BME280;59793;46.506;6.674;2023-07-20T12:58:03;96755.25;;;29.04;33.44
71917;BME280;59793;46.506;6.674;2023-07-20T13:00:28;96708.16;;;28.72;34.49
71917;BME280;59793;46.506;6.674;2023-07-20T13:02:54;96712.44;;;28.79;33.55
71917;BME280;59793;46.506;6.674;2023-07-20T13:05:19;96726.03;;;29.14;33.23
71917;BME280;59793;46.506;6.674;2023-07-20T13:07:44;96733.06;;;29.41;32.04
71917;BME280;59793;46.506;6.674;2023-07-20T13:10:11;96729.00;;;29.31;33.36
71917;BME280;59793;46.506;6.674;2023-07-20T13:12:37;96753.53;;;29.22;33.27
71917;BME280;59793;46.506;6.674;2023-07-20T13:15:04;96713.56;;;28.87;34.69
71917;BME280;59793;46.506;6.674;2023-07-20T13:17:37;96732.94;;;28.80;33.96
71917;BME280;59793;46.506;6.674;2023-07-20T13:20:04;96732.63;;;29.08;33.35